createdAt,value
2019-01-19T00:05:32.887Z,0.60
2019-01-19T00:08:40.403Z,0.59
2019-01-19T00:11:47.838Z,0.60
2019-01-19T00:14:49.745Z,0.61
2019-01-19T00:20:53.119Z,0.56
2019-01-19T00:24:00.636Z,0.58
2019-01-19T00:27:08.253Z,0.58
2019-01-19T00:30:15.952Z,0.62
2019-01-19T00:33:23.682Z,0.61
2019-01-19T00:36:31.201Z,0.61
2019-01-19T00:39:39.011Z,0.59
2019-01-19T00:42:46.614Z,0.61
2019-01-19T00:45:54.339Z,0.61
2019-01-19T00:49:02.127Z,0.60
2019-01-19T00:52:09.667Z,0.57
2019-01-19T00:55:17.390Z,0.58
2019-01-19T00:58:25.303Z,0.57
2019-01-19T01:01:26.614Z,0.58
2019-01-19T01:04:34.288Z,0.56
2019-01-19T01:07:41.756Z,0.56
2019-01-19T01:10:49.192Z,0.53
2019-01-19T01:13:56.670Z,0.52
2019-01-19T01:17:00.280Z,0.52
2019-01-19T01:20:07.806Z,0.55
2019-01-19T01:23:10.728Z,0.54
2019-01-19T01:26:18.265Z,0.53
2019-01-19T01:32:51.343Z,0.52
2019-01-19T01:35:58.922Z,0.49
2019-01-19T01:39:02.480Z,0.50
2019-01-19T01:42:10.150Z,0.49
2019-01-19T01:45:17.491Z,0.51
2019-01-19T01:48:18.705Z,0.51
2019-01-19T01:57:09.456Z,0.46
2019-01-19T01:59:53.031Z,0.45
2019-01-19T02:03:00.725Z,0.43
2019-01-19T02:05:56.462Z,0.42
2019-01-19T02:09:00.340Z,0.42
2019-01-19T02:12:08.172Z,0.39
2019-01-19T02:15:18.476Z,0.42
2019-01-19T02:18:23.438Z,0.51
2019-01-19T02:21:30.922Z,0.42
2019-01-19T02:24:38.440Z,0.41
2019-01-19T02:31:00.597Z,0.41
2019-01-19T02:34:08.290Z,0.37
2019-01-19T02:37:15.790Z,0.36
2019-01-19T02:40:23.354Z,0.36
2019-01-19T02:43:24.848Z,0.35
2019-01-19T02:46:17.359Z,0.33
2019-01-19T02:49:24.783Z,0.31
2019-01-19T02:52:32.248Z,0.30
2019-01-19T02:55:40.310Z,0.29
2019-01-19T02:58:48.266Z,0.23
2019-01-19T03:01:55.764Z,0.21
2019-01-19T03:05:06.408Z,0.22
2019-01-19T03:08:14.226Z,0.21
2019-01-19T03:10:55.709Z,0.22
2019-01-19T03:14:03.157Z,0.25
2019-01-19T03:17:10.661Z,0.17
2019-01-19T03:23:23.616Z,0.15
2019-01-19T03:26:31.050Z,0.11
2019-01-19T03:29:38.533Z,0.12
2019-01-19T03:32:46.013Z,0.12
2019-01-19T03:35:53.499Z,0.11
2019-01-19T03:39:01.529Z,0.03
2019-01-19T03:42:09.401Z,-0.01
2019-01-19T03:45:03.288Z,-0.03
2019-01-19T03:48:10.839Z,-0.06
2019-01-19T03:51:18.389Z,-0.06
2019-01-19T03:54:25.879Z,-0.09
2019-01-19T03:57:33.348Z,-0.11
2019-01-19T04:00:40.960Z,-0.15
2019-01-19T04:07:01.395Z,-0.06
2019-01-19T04:10:08.842Z,-0.15
2019-01-19T04:13:16.366Z,-0.19
2019-01-19T04:16:24.078Z,-0.20
2019-01-19T04:19:31.521Z,-0.19
2019-01-19T04:22:39.001Z,-0.19
2019-01-19T04:25:46.551Z,-0.21
2019-01-19T04:31:00.386Z,-0.25
2019-01-19T04:33:29.751Z,-0.24
2019-01-19T04:35:59.137Z,-0.25
2019-01-19T04:41:09.144Z,-0.28
2019-01-19T04:43:38.554Z,-0.31
2019-01-19T04:46:07.928Z,-0.30
2019-01-19T04:51:33.944Z,-0.31
2019-01-19T04:54:03.660Z,-0.33
2019-01-19T04:56:33.014Z,-0.34
2019-01-19T05:02:17.384Z,-0.33
2019-01-19T05:07:49.065Z,-0.35
2019-01-19T05:10:18.492Z,-0.36
2019-01-19T05:12:47.907Z,-0.37
2019-01-19T05:15:29.951Z,-0.37
2019-01-19T05:23:58.354Z,-0.33
2019-01-19T05:26:27.720Z,-0.34
2019-01-19T05:28:59.128Z,-0.36
2019-01-19T05:31:31.330Z,-0.37
2019-01-19T05:34:00.686Z,-0.38
2019-01-19T05:36:38.042Z,-0.39
2019-01-19T05:39:47.967Z,-0.39
2019-01-19T05:45:29.451Z,-0.39
2019-01-19T05:47:58.885Z,-0.38
2019-01-19T05:50:28.301Z,-0.40
2019-01-19T05:52:57.652Z,-0.43
2019-01-19T05:55:27.020Z,-0.42
2019-01-19T05:57:56.496Z,-0.40
2019-01-19T06:09:13.450Z,-0.45
2019-01-19T06:11:44.421Z,-0.47
2019-01-19T06:14:34.840Z,-0.50
2019-01-19T06:20:06.630Z,-0.46
2019-01-19T06:22:36.015Z,-0.48
2019-01-19T06:25:17.964Z,-0.52
2019-01-19T06:27:47.370Z,-0.50
2019-01-19T06:34:01.644Z,-0.52
2019-01-19T06:36:31.587Z,-0.52
2019-01-19T06:39:12.124Z,-0.52
2019-01-19T06:41:43.680Z,-0.52
2019-01-19T06:44:13.098Z,-0.50
2019-01-19T06:46:42.622Z,-0.50
2019-01-19T06:55:26.862Z,-0.50
2019-01-19T06:57:56.199Z,-0.50
2019-01-19T07:00:45.871Z,-0.50
2019-01-19T07:03:15.664Z,-0.51
2019-01-19T07:12:09.735Z,-0.52
2019-01-19T07:17:41.696Z,-0.53
2019-01-19T07:20:33.912Z,-0.54
2019-01-19T07:26:04.763Z,-0.56
2019-01-19T07:31:35.910Z,-0.56
2019-01-19T07:40:10.268Z,-0.55
2019-01-19T07:48:26.576Z,-0.46
2019-01-19T07:53:58.905Z,-0.45
2019-01-19T07:56:47.347Z,-0.45
2019-01-19T07:59:35.704Z,-0.42
2019-01-19T08:02:05.065Z,-0.41
2019-01-19T08:04:53.543Z,-0.39
2019-01-19T08:07:30.320Z,-0.41
2019-01-19T08:09:59.703Z,-0.37
2019-01-19T08:12:49.733Z,-0.33
2019-01-19T08:15:34.628Z,-0.33
2019-01-19T08:18:04.199Z,-0.28
2019-01-19T08:26:25.041Z,-0.21
2019-01-19T08:28:54.465Z,-0.18
2019-01-19T08:34:54.226Z,-0.11
2019-01-19T08:37:44.055Z,-0.04
2019-01-19T08:40:16.507Z,-0.05
2019-01-19T08:48:25.973Z,0.05
2019-01-19T08:50:55.469Z,0.08
2019-01-19T08:53:43.903Z,0.14
2019-01-19T08:56:13.335Z,0.16
2019-01-19T09:01:43.974Z,0.20
2019-01-19T09:04:52.897Z,0.27
2019-01-19T09:10:45.055Z,0.39
2019-01-19T09:13:44.235Z,0.42
2019-01-19T09:19:16.585Z,0.46
2019-01-19T09:27:44.434Z,0.63
2019-01-19T09:30:16.617Z,0.84
2019-01-19T09:35:42.816Z,0.92
2019-01-19T09:38:31.883Z,1.05
2019-01-19T09:50:07.170Z,1.25
2019-01-19T09:55:42.130Z,1.31
2019-01-19T09:58:11.582Z,1.30
2019-01-19T10:00:45.497Z,1.34
2019-01-19T10:03:14.670Z,1.38
2019-01-19T10:05:44.077Z,1.53
2019-01-19T10:08:13.724Z,1.59
2019-01-19T10:10:46.436Z,1.73
2019-01-19T10:13:15.787Z,1.82
2019-01-19T10:15:45.443Z,1.81
2019-01-19T10:18:14.881Z,1.86
2019-01-19T10:20:44.345Z,1.90
2019-01-19T10:23:13.798Z,1.99
2019-01-19T10:25:43.803Z,1.99
2019-01-19T10:28:13.218Z,2.01
2019-01-19T10:30:42.619Z,2.08
2019-01-19T10:33:12.194Z,2.07
2019-01-19T10:35:41.579Z,2.13
2019-01-19T10:38:12.423Z,2.17
2019-01-19T10:40:45.580Z,2.24
2019-01-19T10:43:15.038Z,2.29
2019-01-19T10:45:44.631Z,2.38
2019-01-19T10:48:17.479Z,2.42
2019-01-19T10:50:46.911Z,2.47
2019-01-19T10:53:16.420Z,2.52
2019-01-19T10:55:45.741Z,2.58
2019-01-19T10:58:15.095Z,2.62
2019-01-19T11:00:45.874Z,2.65
2019-01-19T11:03:15.796Z,2.67
2019-01-19T11:05:45.164Z,2.72
2019-01-19T11:08:15.059Z,2.78
2019-01-19T11:10:44.431Z,2.83
2019-01-19T11:13:13.733Z,2.85
2019-01-19T11:15:42.972Z,2.88
2019-01-19T11:18:12.400Z,2.94
2019-01-19T11:20:45.006Z,3.09
2019-01-19T11:23:14.315Z,3.09
2019-01-19T11:25:43.630Z,3.12
2019-01-19T11:28:13.290Z,3.21
2019-01-19T11:30:45.013Z,3.26
2019-01-19T11:33:17.891Z,3.28
2019-01-19T11:35:47.363Z,3.36
2019-01-19T11:38:20.231Z,3.40
2019-01-19T11:40:48.903Z,3.40
2019-01-19T11:43:18.556Z,3.43
2019-01-19T11:45:48.271Z,3.48
2019-01-19T11:48:17.728Z,3.54
2019-01-19T11:50:47.310Z,3.59
2019-01-19T11:53:16.869Z,3.68
2019-01-19T11:55:49.776Z,3.69
2019-01-19T11:58:19.211Z,3.70
2019-01-19T12:00:48.770Z,3.78
2019-01-19T12:03:21.243Z,3.82
2019-01-19T12:05:53.646Z,3.88
2019-01-19T12:08:23.359Z,3.86
2019-01-19T12:10:55.229Z,3.85
2019-01-19T12:13:26.362Z,3.89
2019-01-19T12:15:55.944Z,3.97
2019-01-19T12:18:25.278Z,3.97
2019-01-19T12:20:54.741Z,3.93
2019-01-19T12:23:24.461Z,3.88
2019-01-19T12:25:54.355Z,4.01
2019-01-19T12:28:24.557Z,4.47
2019-01-19T12:30:55.102Z,5.18
2019-01-19T12:33:24.582Z,6.11
2019-01-19T12:35:53.868Z,6.67
2019-01-19T12:38:26.984Z,7.57
2019-01-19T12:40:55.238Z,8.12
2019-01-19T12:43:28.919Z,8.98
2019-01-19T12:46:07.034Z,8.75
2019-01-19T12:48:42.514Z,8.82
2019-01-19T12:51:13.365Z,9.04
2019-01-19T12:53:44.177Z,8.50
2019-01-19T12:56:13.632Z,8.49
2019-01-19T12:58:43.152Z,8.35
2019-01-19T13:01:12.538Z,8.07
2019-01-19T13:03:42.438Z,8.11
2019-01-19T13:06:22.895Z,8.53
2019-01-19T13:08:52.259Z,8.95
2019-01-19T13:11:58.416Z,9.05
2019-01-19T13:14:28.310Z,9.29
2019-01-19T13:17:40.338Z,9.35
2019-01-19T13:20:37.129Z,9.95
2019-01-19T13:23:49.131Z,9.61
2019-01-19T13:27:08.816Z,9.45
2019-01-19T13:30:27.012Z,9.53
2019-01-19T13:33:30.257Z,9.54
2019-01-19T13:36:34.630Z,9.50
2019-01-19T13:39:45.272Z,9.26
2019-01-19T13:42:57.602Z,8.58
2019-01-19T13:45:54.975Z,7.55
2019-01-19T13:49:16.355Z,6.75
2019-01-19T13:52:09.867Z,6.14
2019-01-19T13:55:14.381Z,5.83
2019-01-19T13:58:05.735Z,5.64
2019-01-19T14:01:37.000Z,5.46
2019-01-19T14:04:25.802Z,5.28
2019-01-19T14:07:16.153Z,5.15
2019-01-19T14:10:19.467Z,4.97
2019-01-19T14:13:31.848Z,4.84
2019-01-19T14:16:51.086Z,4.83
2019-01-19T14:19:46.231Z,4.78
2019-01-19T14:22:44.943Z,4.72
2019-01-19T14:25:58.155Z,4.60
2019-01-19T14:29:23.487Z,4.51
2019-01-19T14:32:20.721Z,4.47
2019-01-19T14:35:01.228Z,4.43
2019-01-19T14:38:06.181Z,4.40
2019-01-19T14:41:09.345Z,4.33
2019-01-19T14:44:15.335Z,4.34
2019-01-19T14:47:22.600Z,4.28
2019-01-19T14:50:31.891Z,4.24
2019-01-19T14:53:30.658Z,4.28
2019-01-19T14:56:25.267Z,4.23
2019-01-19T14:59:29.159Z,4.22
2019-01-19T15:02:50.404Z,4.19
2019-01-19T15:05:45.767Z,4.16
2019-01-19T15:08:22.337Z,4.14
2019-01-19T15:11:34.456Z,4.10
2019-01-19T15:14:55.981Z,4.08
2019-01-19T15:18:07.510Z,4.09
2019-01-19T15:21:03.828Z,4.05
2019-01-19T15:23:44.733Z,4.02
2019-01-19T15:26:55.512Z,4.00
2019-01-19T15:29:52.011Z,3.94
2019-01-19T15:32:55.589Z,3.87
2019-01-19T15:36:00.169Z,3.83
2019-01-19T15:39:11.073Z,3.79
2019-01-19T15:42:51.725Z,3.75
2019-01-19T15:46:16.528Z,3.71
2019-01-19T15:49:22.071Z,3.64
2019-01-19T15:52:16.814Z,3.64
2019-01-19T15:55:35.561Z,3.54
2019-01-19T15:58:15.277Z,3.48
2019-01-19T16:01:18.860Z,3.42
2019-01-19T16:04:00.109Z,3.41
2019-01-19T16:06:49.039Z,3.39
2019-01-19T16:10:16.958Z,3.36
2019-01-19T16:13:23.020Z,3.29
2019-01-19T16:16:38.452Z,3.21
2019-01-19T16:20:03.024Z,3.15
2019-01-19T16:23:19.248Z,3.10
2019-01-19T16:26:12.495Z,3.10
2019-01-19T16:29:07.385Z,3.06
2019-01-19T16:32:20.303Z,3.01
2019-01-19T16:35:30.029Z,2.97
2019-01-19T16:38:29.810Z,2.95
2019-01-19T16:41:37.399Z,2.86
2019-01-19T16:44:50.760Z,2.87
2019-01-19T16:48:13.506Z,2.87
2019-01-19T16:51:24.201Z,2.81
2019-01-19T16:54:16.795Z,2.78
2019-01-19T16:57:36.404Z,2.74
2019-01-19T17:00:47.866Z,2.73
2019-01-19T17:04:00.540Z,2.67
2019-01-19T17:07:05.991Z,2.65
2019-01-19T17:09:59.352Z,2.66
2019-01-19T17:13:10.071Z,2.63
2019-01-19T17:16:04.429Z,2.63
2019-01-19T17:18:59.213Z,2.56
2019-01-19T17:22:11.493Z,2.55
2019-01-19T17:25:18.149Z,2.50
2019-01-19T17:28:31.256Z,2.48
2019-01-19T17:31:38.828Z,2.44
2019-01-19T17:34:42.613Z,2.39
2019-01-19T17:37:41.164Z,2.38
2019-01-19T17:40:42.634Z,2.34
2019-01-19T17:43:42.046Z,2.35
2019-01-19T17:46:45.927Z,2.33
2019-01-19T17:50:11.104Z,2.30
2019-01-19T17:52:56.614Z,2.28
2019-01-19T17:56:05.881Z,2.23
2019-01-19T17:59:02.326Z,2.23
2019-01-19T18:01:53.667Z,2.19
2019-01-19T18:04:53.379Z,2.16
2019-01-19T18:08:16.144Z,2.16
2019-01-19T18:11:23.866Z,2.12
2019-01-19T18:14:25.488Z,2.08
2019-01-19T18:17:30.920Z,2.07
2019-01-19T18:20:29.068Z,2.05
2019-01-19T18:23:24.210Z,1.98
2019-01-19T18:26:24.348Z,1.94
2019-01-19T18:29:24.601Z,1.90
2019-01-19T18:32:06.386Z,1.85
2019-01-19T18:35:06.637Z,1.82
2019-01-19T18:38:29.007Z,1.79
2019-01-19T18:41:30.868Z,1.74
2019-01-19T18:44:36.193Z,1.74
2019-01-19T18:47:42.220Z,1.73
2019-01-19T18:51:03.619Z,1.68
2019-01-19T18:53:46.304Z,1.68
2019-01-19T18:56:58.328Z,1.62
2019-01-19T19:00:10.447Z,1.57
2019-01-19T19:03:08.967Z,1.56
2019-01-19T19:06:25.295Z,1.53
2019-01-19T19:09:35.869Z,1.51
2019-01-19T19:12:34.839Z,1.47
2019-01-19T19:15:44.653Z,1.47
2019-01-19T19:18:34.415Z,1.43
2019-01-19T19:21:33.287Z,1.40
2019-01-19T19:24:59.824Z,1.39
2019-01-19T19:28:06.058Z,1.33
2019-01-19T19:31:05.188Z,1.33
2019-01-19T19:33:58.038Z,1.31
2019-01-19T19:37:08.815Z,1.29
2019-01-19T19:39:58.480Z,1.32
2019-01-19T19:42:58.416Z,1.23
2019-01-19T19:46:02.658Z,1.23
2019-01-19T19:48:43.579Z,1.19
2019-01-19T19:51:49.442Z,1.19
2019-01-19T19:54:18.913Z,1.21
2019-01-19T19:56:46.685Z,1.18
2019-01-19T19:59:18.695Z,1.16
2019-01-19T20:01:47.925Z,1.13
2019-01-19T20:04:17.421Z,1.14
2019-01-19T20:06:46.721Z,1.09
2019-01-19T20:09:19.755Z,1.08
2019-01-19T20:11:49.698Z,1.05
2019-01-19T20:14:19.182Z,1.05
2019-01-19T20:16:48.366Z,1.01
2019-01-19T20:19:17.798Z,0.97
2019-01-19T20:21:49.453Z,0.94
2019-01-19T20:24:18.938Z,0.93
2019-01-19T20:26:48.533Z,0.94
2019-01-19T20:29:18.317Z,0.91
2019-01-19T20:31:47.635Z,0.88
2019-01-19T20:34:16.966Z,0.85
2019-01-19T20:36:46.320Z,0.86
2019-01-19T20:39:15.657Z,0.83
2019-01-19T20:41:45.119Z,0.80
2019-01-19T20:44:14.451Z,0.77
2019-01-19T20:46:44.734Z,0.74
2019-01-19T20:49:14.138Z,0.72
2019-01-19T20:51:43.558Z,0.73
2019-01-19T20:54:13.156Z,0.69
2019-01-19T20:56:42.566Z,0.69
2019-01-19T20:59:11.835Z,0.65
2019-01-19T21:01:43.327Z,0.61
2019-01-19T21:04:15.950Z,0.58
2019-01-19T21:06:44.093Z,0.57
2019-01-19T21:09:13.715Z,0.57
2019-01-19T21:11:43.230Z,0.57
2019-01-19T21:14:12.562Z,0.54
2019-01-19T21:16:41.946Z,0.53
2019-01-19T21:19:11.321Z,0.52
2019-01-19T21:21:40.620Z,0.50
2019-01-19T21:24:10.057Z,0.54
2019-01-19T21:26:39.533Z,0.50
2019-01-19T21:29:09.430Z,0.47
2019-01-19T21:31:38.947Z,0.47
2019-01-19T21:34:08.912Z,0.47
2019-01-19T21:36:38.399Z,0.45
2019-01-19T21:39:08.932Z,0.41
2019-01-19T21:41:41.448Z,0.42
2019-01-19T21:44:10.806Z,0.48
2019-01-19T21:46:40.450Z,0.44
2019-01-19T21:49:09.843Z,0.42
2019-01-19T21:51:39.546Z,0.41
2019-01-19T21:54:09.569Z,0.42
2019-01-19T21:56:42.042Z,0.41
2019-01-19T21:59:11.420Z,0.40
2019-01-19T22:01:40.739Z,0.35
2019-01-19T22:04:10.114Z,0.35
2019-01-19T22:06:39.527Z,0.33
2019-01-19T22:09:09.198Z,0.32
2019-01-19T22:11:38.581Z,0.32
2019-01-19T22:14:07.917Z,0.36
2019-01-19T22:16:37.490Z,0.40
2019-01-19T22:19:08.000Z,0.39
2019-01-19T22:21:37.405Z,0.35
2019-01-19T22:24:06.725Z,0.33
2019-01-19T22:26:37.893Z,0.32
2019-01-19T22:29:08.673Z,0.32
2019-01-19T22:31:38.258Z,0.32
2019-01-19T22:34:07.803Z,0.30
2019-01-19T22:36:37.218Z,0.27
2019-01-19T22:39:08.102Z,0.26
2019-01-19T22:41:37.515Z,0.28
2019-01-19T22:44:07.492Z,0.26
2019-01-19T22:46:40.447Z,0.25
2019-01-19T22:49:09.865Z,0.23
2019-01-19T22:51:39.302Z,0.22
2019-01-19T22:54:08.979Z,0.20
2019-01-19T22:56:38.342Z,0.19
2019-01-19T22:59:07.634Z,0.20
2019-01-19T23:01:52.516Z,0.18
2019-01-19T23:04:21.993Z,0.18
2019-01-19T23:06:51.357Z,0.14
2019-01-19T23:09:20.716Z,0.15
2019-01-19T23:11:50.039Z,0.13
2019-01-19T23:14:19.387Z,0.11
2019-01-19T23:16:50.284Z,0.12
2019-01-19T23:19:19.629Z,0.12
2019-01-19T23:21:49.564Z,0.11
2019-01-19T23:24:19.127Z,0.10
2019-01-19T23:26:48.696Z,0.09
2019-01-19T23:29:23.475Z,0.07
2019-01-19T23:31:52.860Z,0.03
2019-01-19T23:34:22.147Z,0.02
2019-01-19T23:36:51.597Z,-0.01
2019-01-19T23:39:20.998Z,0.00
2019-01-19T23:41:50.431Z,0.01
2019-01-19T23:44:19.622Z,0.00
2019-01-19T23:46:49.002Z,-0.01
2019-01-19T23:49:18.352Z,0.00
2019-01-19T23:51:47.737Z,0.00
2019-01-19T23:54:17.111Z,-0.05
2019-01-19T23:56:46.460Z,-0.05
2019-01-19T23:59:16.248Z,-0.06
